createdAt,value
2019-01-12T00:00:27.054Z,1007.97
2019-01-12T00:01:27.386Z,1007.91
2019-01-12T00:02:27.042Z,1007.88
2019-01-12T00:03:27.022Z,1007.94
2019-01-12T00:04:27.014Z,1007.87
2019-01-12T00:05:27.007Z,1007.94
2019-01-12T00:06:26.989Z,1007.95
2019-01-12T00:07:26.987Z,1007.97
2019-01-12T00:08:26.967Z,1007.99
2019-01-12T00:09:26.960Z,1007.97
2019-01-12T00:10:26.950Z,1008.03
2019-01-12T00:11:26.935Z,1007.94
2019-01-12T00:12:26.931Z,1008.04
2019-01-12T00:13:26.914Z,1008.06
2019-01-12T00:14:26.906Z,1008.02
2019-01-12T00:15:26.891Z,1008.06
2019-01-12T00:16:26.881Z,1007.99
2019-01-12T00:17:26.883Z,1008.02
2019-01-12T00:18:26.858Z,1008.05
2019-01-12T00:19:26.849Z,1008.09
2019-01-12T00:20:26.842Z,1008.15
2019-01-12T00:21:26.825Z,1008.16
2019-01-12T00:22:26.823Z,1008.12
2019-01-12T00:23:26.803Z,1008.07
2019-01-12T00:24:31.582Z,1008.09
2019-01-12T00:25:27.782Z,1008.11
2019-01-12T00:26:26.771Z,1008.08
2019-01-12T00:27:26.798Z,1008.08
2019-01-12T00:28:26.755Z,1008.10
2019-01-12T00:29:26.738Z,1008.08
2019-01-12T00:30:26.731Z,1008.05
2019-01-12T00:31:26.716Z,1008.04
2019-01-12T00:32:26.718Z,1008.04
2019-01-12T00:33:26.696Z,1008.07
2019-01-12T00:34:26.686Z,1008.10
2019-01-12T00:35:26.676Z,1008.08
2019-01-12T00:36:26.661Z,1008.09
2019-01-12T00:37:26.672Z,1008.05
2019-01-12T00:38:26.639Z,1008.10
2019-01-12T00:39:26.629Z,1008.11
2019-01-12T00:40:26.620Z,1008.08
2019-01-12T00:41:26.610Z,1008.07
2019-01-12T00:42:26.605Z,1008.06
2019-01-12T00:43:26.589Z,1008.08
2019-01-12T00:44:26.576Z,1008.10
2019-01-12T00:45:26.567Z,1008.06
2019-01-12T00:46:26.553Z,1008.13
2019-01-12T00:47:26.552Z,1008.14
2019-01-12T00:48:26.533Z,1008.17
2019-01-12T00:49:26.520Z,1008.28
2019-01-12T00:50:26.510Z,1008.21
2019-01-12T00:51:26.502Z,1008.24
2019-01-12T00:52:26.518Z,1008.24
2019-01-12T00:53:26.482Z,1008.29
2019-01-12T00:54:27.227Z,1008.26
2019-01-12T00:55:26.456Z,1008.32
2019-01-12T00:56:26.447Z,1008.21
2019-01-12T00:57:26.433Z,1008.23
2019-01-12T00:58:26.431Z,1008.31
2019-01-12T00:59:26.413Z,1008.31
2019-01-12T01:00:26.401Z,1008.29
2019-01-12T01:01:26.394Z,1008.33
2019-01-12T01:02:26.380Z,1008.32
2019-01-12T01:03:26.380Z,1008.41
2019-01-12T01:04:26.370Z,1008.42
2019-01-12T01:05:26.347Z,1008.34
2019-01-12T01:06:26.341Z,1008.31
2019-01-12T01:07:26.324Z,1008.37
2019-01-12T01:08:26.326Z,1008.38
2019-01-12T01:09:26.306Z,1008.39
2019-01-12T01:10:26.295Z,1008.45
2019-01-12T01:11:26.282Z,1008.47
2019-01-12T01:12:26.274Z,1008.44
2019-01-12T01:13:26.272Z,1008.50
2019-01-12T01:14:26.252Z,1008.43
2019-01-12T01:15:26.240Z,1008.47
2019-01-12T01:16:26.227Z,1008.47
2019-01-12T01:17:26.219Z,1008.48
2019-01-12T01:18:26.215Z,1008.51
2019-01-12T01:19:26.197Z,1008.52
2019-01-12T01:20:26.189Z,1008.45
2019-01-12T01:21:26.173Z,1008.54
2019-01-12T01:22:26.166Z,1008.48
2019-01-12T01:23:26.160Z,1008.51
2019-01-12T01:24:26.142Z,1008.49
2019-01-12T01:25:26.137Z,1008.53
2019-01-12T01:26:26.123Z,1008.48
2019-01-12T01:27:26.109Z,1008.55
2019-01-12T01:28:26.108Z,1008.55
2019-01-12T01:29:26.089Z,1008.60
2019-01-12T01:30:26.087Z,1008.58
2019-01-12T01:31:26.067Z,1008.56
2019-01-12T01:32:26.056Z,1008.60
2019-01-12T01:33:28.039Z,1008.54
2019-01-12T01:34:26.032Z,1008.54
2019-01-12T01:35:26.022Z,1008.54
2019-01-12T01:36:26.011Z,1008.59
2019-01-12T01:37:26.002Z,1008.55
2019-01-12T01:38:25.998Z,1008.55
2019-01-12T01:39:25.979Z,1008.63
2019-01-12T01:40:25.968Z,1008.62
2019-01-12T01:41:25.958Z,1008.64
2019-01-12T01:42:25.946Z,1008.65
2019-01-12T01:43:25.944Z,1008.71
2019-01-12T01:44:25.932Z,1008.69
2019-01-12T01:45:25.916Z,1008.76
2019-01-12T01:46:25.903Z,1008.71
2019-01-12T01:47:25.901Z,1008.74
2019-01-12T01:48:25.889Z,1008.66
2019-01-12T01:49:25.877Z,1008.76
2019-01-12T01:50:25.859Z,1008.70
2019-01-12T01:51:25.849Z,1008.78
2019-01-12T01:52:25.840Z,1008.79
2019-01-12T01:53:25.838Z,1008.79
2019-01-12T01:54:25.820Z,1008.77
2019-01-12T01:55:25.805Z,1008.80
2019-01-12T01:56:25.796Z,1008.74
2019-01-12T01:57:25.786Z,1008.76
2019-01-12T01:58:26.072Z,1008.76
2019-01-12T01:59:25.762Z,1008.75
2019-01-12T02:00:25.751Z,1008.74
2019-01-12T02:01:25.741Z,1008.78
2019-01-12T02:02:25.729Z,1008.76
2019-01-12T02:03:25.720Z,1008.81
2019-01-12T02:04:25.718Z,1008.83
2019-01-12T02:05:25.697Z,1008.81
2019-01-12T02:06:25.688Z,1008.83
2019-01-12T02:07:25.676Z,1008.82
2019-01-12T02:08:25.665Z,1008.82
2019-01-12T02:09:25.664Z,1008.83
2019-01-12T02:10:25.643Z,1008.82
2019-01-12T02:11:25.636Z,1008.81
2019-01-12T02:12:25.622Z,1008.81
2019-01-12T02:13:25.610Z,1008.81
2019-01-12T02:14:25.623Z,1008.82
2019-01-12T02:15:25.590Z,1008.80
2019-01-12T02:16:25.580Z,1008.79
2019-01-12T02:17:25.572Z,1008.76
2019-01-12T02:18:25.562Z,1008.77
2019-01-12T02:19:25.557Z,1008.72
2019-01-12T02:20:25.537Z,1008.78
2019-01-12T02:21:25.528Z,1008.74
2019-01-12T02:22:25.518Z,1008.72
2019-01-12T02:23:25.507Z,1008.75
2019-01-12T02:24:25.502Z,1008.78
2019-01-12T02:25:25.485Z,1008.63
2019-01-12T02:26:25.473Z,1008.72
2019-01-12T02:27:25.462Z,1008.73
2019-01-12T02:28:25.455Z,1008.71
2019-01-12T02:29:25.449Z,1008.68
2019-01-12T02:30:25.438Z,1008.75
2019-01-12T02:31:25.417Z,1008.71
2019-01-12T02:32:25.410Z,1008.70
2019-01-12T02:33:25.398Z,1008.69
2019-01-12T02:34:25.397Z,1008.74
2019-01-12T02:35:25.376Z,1008.67
2019-01-12T02:36:25.364Z,1008.59
2019-01-12T02:37:25.356Z,1008.64
2019-01-12T02:38:25.345Z,1008.59
2019-01-12T02:39:25.344Z,1008.65
2019-01-12T02:40:25.324Z,1008.64
2019-01-12T02:41:25.314Z,1008.62
2019-01-12T02:42:25.300Z,1008.65
2019-01-12T02:43:25.290Z,1008.62
2019-01-12T02:44:25.291Z,1008.62
2019-01-12T02:45:25.271Z,1008.61
2019-01-12T02:46:25.257Z,1008.59
2019-01-12T02:47:25.248Z,1008.59
2019-01-12T02:48:25.236Z,1008.61
2019-01-12T02:49:25.250Z,1008.59
2019-01-12T02:50:25.215Z,1008.58
2019-01-12T02:51:25.204Z,1008.53
2019-01-12T02:52:25.194Z,1008.57
2019-01-12T02:53:25.186Z,1008.54
2019-01-12T02:54:25.179Z,1008.54
2019-01-12T02:55:25.167Z,1008.53
2019-01-12T02:56:25.150Z,1008.57
2019-01-12T02:57:25.141Z,1008.57
2019-01-12T02:58:25.132Z,1008.59
2019-01-12T02:59:25.207Z,1008.65
2019-01-12T03:00:25.110Z,1008.62
2019-01-12T03:01:25.099Z,1008.61
2019-01-12T03:02:25.086Z,1008.56
2019-01-12T03:03:25.081Z,1008.59
2019-01-12T03:04:25.095Z,1008.58
2019-01-12T03:05:25.055Z,1008.53
2019-01-12T03:06:25.045Z,1008.52
2019-01-12T03:07:25.035Z,1008.51
2019-01-12T03:08:25.025Z,1008.48
2019-01-12T03:09:25.012Z,1008.50
2019-01-12T03:10:25.010Z,1008.48
2019-01-12T03:11:24.990Z,1008.50
2019-01-12T03:12:24.982Z,1008.57
2019-01-12T03:13:24.969Z,1008.53
2019-01-12T03:14:24.962Z,1008.57
2019-01-12T03:15:24.957Z,1008.59
2019-01-12T03:16:24.938Z,1008.55
2019-01-12T03:17:24.926Z,1008.55
2019-01-12T03:18:24.919Z,1008.55
2019-01-12T03:19:24.905Z,1008.49
2019-01-12T03:20:24.917Z,1008.51
2019-01-12T03:21:24.884Z,1008.50
2019-01-12T03:22:24.875Z,1008.46
2019-01-12T03:23:24.862Z,1008.50
2019-01-12T03:24:24.851Z,1008.47
2019-01-12T03:25:24.852Z,1008.46
2019-01-12T03:26:24.830Z,1008.50
2019-01-12T03:27:24.819Z,1008.46
2019-01-12T03:28:24.812Z,1008.50
2019-01-12T03:29:24.797Z,1008.46
2019-01-12T03:30:24.811Z,1008.46
2019-01-12T03:31:24.780Z,1008.47
2019-01-12T03:32:24.768Z,1008.47
2019-01-12T03:33:24.758Z,1008.47
2019-01-12T03:34:24.743Z,1008.48
2019-01-12T03:35:24.783Z,1008.51
2019-01-12T03:36:24.728Z,1008.43
2019-01-12T03:37:24.712Z,1008.39
2019-01-12T03:38:24.705Z,1008.37
2019-01-12T03:39:24.690Z,1008.35
2019-01-12T03:40:24.694Z,1008.39
2019-01-12T03:41:24.676Z,1008.37
2019-01-12T03:42:24.659Z,1008.36
2019-01-12T03:43:24.647Z,1008.33
2019-01-12T03:44:24.638Z,1008.31
2019-01-12T03:45:24.626Z,1008.37
2019-01-12T03:46:24.628Z,1008.35
2019-01-12T03:47:24.602Z,1008.31
2019-01-12T03:48:24.592Z,1008.33
2019-01-12T03:49:24.581Z,1008.39
2019-01-12T03:50:24.570Z,1008.36
2019-01-12T03:51:24.571Z,1008.39
2019-01-12T03:52:24.555Z,1008.37
2019-01-12T03:53:24.539Z,1008.40
2019-01-12T03:54:24.531Z,1008.38
2019-01-12T03:55:25.799Z,1008.44
2019-01-12T03:56:24.516Z,1008.39
2019-01-12T03:57:24.499Z,1008.37
2019-01-12T03:58:24.486Z,1008.33
2019-01-12T03:59:24.475Z,1008.39
2019-01-12T04:00:24.462Z,1008.36
2019-01-12T04:01:24.461Z,1008.38
2019-01-12T04:02:24.443Z,1008.30
2019-01-12T04:03:24.430Z,1008.29
2019-01-12T04:04:24.428Z,1008.31
2019-01-12T04:05:24.409Z,1008.29
2019-01-12T04:06:24.406Z,1008.32
2019-01-12T04:07:24.391Z,1008.28
2019-01-12T04:08:24.378Z,1008.32
2019-01-12T04:09:24.385Z,1008.30
2019-01-12T04:10:24.354Z,1008.29
2019-01-12T04:11:24.353Z,1008.26
2019-01-12T04:12:24.334Z,1008.25
2019-01-12T04:13:24.347Z,1008.25
2019-01-12T04:14:24.313Z,1008.23
2019-01-12T04:15:24.300Z,1008.24
2019-01-12T04:16:24.301Z,1008.20
2019-01-12T04:17:24.279Z,1008.24
2019-01-12T04:18:24.270Z,1008.23
2019-01-12T04:19:24.261Z,1008.22
2019-01-12T04:20:24.254Z,1008.22
2019-01-12T04:21:24.245Z,1008.22
2019-01-12T04:22:24.226Z,1008.25
2019-01-12T04:23:24.215Z,1008.24
2019-01-12T04:24:24.203Z,1008.21
2019-01-12T04:25:24.192Z,1008.21
2019-01-12T04:26:24.190Z,1008.19
2019-01-12T04:27:24.172Z,1008.21
2019-01-12T04:28:24.161Z,1008.20
2019-01-12T04:29:24.150Z,1008.15
2019-01-12T04:30:24.141Z,1008.14
2019-01-12T04:31:24.138Z,1008.10
2019-01-12T04:32:24.116Z,1008.11
2019-01-12T04:33:24.105Z,1008.11
2019-01-12T04:34:24.102Z,1008.15
2019-01-12T04:35:24.086Z,1008.05
2019-01-12T04:36:24.083Z,1008.09
2019-01-12T04:37:24.064Z,1008.12
2019-01-12T04:38:24.054Z,1008.14
2019-01-12T04:39:24.042Z,1008.09
2019-01-12T04:40:24.031Z,1008.07
2019-01-12T04:41:24.029Z,1008.09
2019-01-12T04:42:24.009Z,1008.07
2019-01-12T04:43:23.999Z,1008.04
2019-01-12T04:44:23.986Z,1008.05
2019-01-12T04:45:23.977Z,1008.05
2019-01-12T04:46:23.975Z,1008.06
2019-01-12T04:47:23.964Z,1008.08
2019-01-12T04:48:23.945Z,1008.05
2019-01-12T04:49:23.932Z,1008.06
2019-01-12T04:50:23.921Z,1008.03
2019-01-12T04:51:23.917Z,1008.02
2019-01-12T04:52:23.900Z,1008.03
2019-01-12T04:53:23.890Z,1007.98
2019-01-12T04:54:23.885Z,1008.03
2019-01-12T04:55:23.872Z,1008.04
2019-01-12T04:56:23.859Z,1008.04
2019-01-12T04:57:23.858Z,1008.02
2019-01-12T04:58:23.840Z,1008.05
2019-01-12T04:59:23.825Z,1008.00
2019-01-12T05:00:23.816Z,1008.02
2019-01-12T05:01:23.802Z,1008.08
2019-01-12T05:02:23.810Z,1008.04
2019-01-12T05:03:23.783Z,1008.09
2019-01-12T05:04:23.770Z,1008.07
2019-01-12T05:05:23.767Z,1008.02
2019-01-12T05:06:23.756Z,1008.04
2019-01-12T05:07:23.751Z,1008.06
2019-01-12T05:08:23.729Z,1008.00
2019-01-12T05:09:23.718Z,1008.02
2019-01-12T05:10:23.706Z,1007.98
2019-01-12T05:11:23.695Z,1008.06
2019-01-12T05:12:23.702Z,1008.04
2019-01-12T05:13:23.672Z,1008.09
2019-01-12T05:14:23.663Z,1008.05
2019-01-12T05:15:23.651Z,1008.05
2019-01-12T05:16:23.641Z,1008.04
2019-01-12T05:17:23.646Z,1008.04
2019-01-12T05:18:23.664Z,1008.08
2019-01-12T05:19:23.609Z,1008.03
2019-01-12T05:20:23.597Z,1008.04
2019-01-12T05:21:23.589Z,1008.08
2019-01-12T05:22:23.593Z,1008.07
2019-01-12T05:23:23.570Z,1008.10
2019-01-12T05:24:23.565Z,1008.13
2019-01-12T05:25:23.543Z,1008.07
2019-01-12T05:26:23.533Z,1008.05
2019-01-12T05:27:23.540Z,1008.08
2019-01-12T05:28:23.512Z,1008.11
2019-01-12T05:29:23.504Z,1008.08
2019-01-12T05:30:23.492Z,1008.08
2019-01-12T05:31:23.489Z,1008.07
2019-01-12T05:32:23.479Z,1008.11
2019-01-12T05:33:23.458Z,1008.05
2019-01-12T05:34:23.450Z,1008.06
2019-01-12T05:35:23.436Z,1008.05
2019-01-12T05:36:23.427Z,1008.05
2019-01-12T05:37:23.425Z,1008.00
2019-01-12T05:38:23.409Z,1008.04
2019-01-12T05:39:23.392Z,1008.03
2019-01-12T05:40:23.384Z,1008.01
2019-01-12T05:41:23.372Z,1007.98
2019-01-12T05:42:23.374Z,1007.99
2019-01-12T05:43:23.352Z,1008.05
2019-01-12T05:44:23.340Z,1008.04
2019-01-12T05:45:23.331Z,1007.99
2019-01-12T05:46:23.319Z,1008.03
2019-01-12T05:47:23.325Z,1008.01
2019-01-12T05:48:23.295Z,1008.07
2019-01-12T05:49:23.284Z,1008.02
2019-01-12T05:50:23.274Z,1007.97
2019-01-12T05:51:23.273Z,1007.97
2019-01-12T05:52:23.261Z,1007.99
2019-01-12T05:53:23.247Z,1008.02
2019-01-12T05:54:23.232Z,1007.97
2019-01-12T05:55:23.222Z,1008.04
2019-01-12T05:56:23.211Z,1007.95
2019-01-12T05:57:23.208Z,1007.91
2019-01-12T05:58:23.193Z,1007.92
2019-01-12T05:59:23.177Z,1007.92
2019-01-12T06:00:23.167Z,1007.92
2019-01-12T06:01:23.155Z,1007.91
2019-01-12T06:02:23.153Z,1007.92
2019-01-12T06:03:23.136Z,1007.90
2019-01-12T06:04:23.128Z,1007.92
2019-01-12T06:05:23.114Z,1007.96
2019-01-12T06:06:23.101Z,1007.99
2019-01-12T06:07:23.100Z,1007.91
2019-01-12T06:08:23.080Z,1007.90
2019-01-12T06:09:23.074Z,1007.98
2019-01-12T06:10:23.058Z,1008.00
2019-01-12T06:11:23.048Z,1007.93
2019-01-12T06:12:23.070Z,1007.98
2019-01-12T06:13:23.026Z,1008.01
2019-01-12T06:14:23.014Z,1008.00
2019-01-12T06:15:23.007Z,1008.01
2019-01-12T06:16:22.995Z,1007.98
2019-01-12T06:17:22.986Z,1008.01
2019-01-12T06:18:22.986Z,1008.05
2019-01-12T06:19:22.963Z,1008.01
2019-01-12T06:20:22.952Z,1008.01
2019-01-12T06:21:22.940Z,1008.04
2019-01-12T06:22:22.931Z,1007.99
2019-01-12T06:23:22.928Z,1008.04
2019-01-12T06:24:22.908Z,1008.03
2019-01-12T06:25:22.898Z,1008.04
2019-01-12T06:26:22.887Z,1008.06
2019-01-12T06:27:22.877Z,1008.07
2019-01-12T06:28:22.878Z,1008.04
2019-01-12T06:29:22.855Z,1008.04
2019-01-12T06:30:22.844Z,1008.05
2019-01-12T06:31:22.832Z,1008.00
2019-01-12T06:32:22.825Z,1008.05
2019-01-12T06:33:22.823Z,1008.03
2019-01-12T06:34:22.803Z,1008.00
2019-01-12T06:35:22.794Z,1008.02
2019-01-12T06:36:22.781Z,1008.04
2019-01-12T06:37:22.768Z,1008.00
2019-01-12T06:38:22.793Z,1008.02
2019-01-12T06:39:22.746Z,1008.05
2019-01-12T06:40:22.736Z,1008.07
2019-01-12T06:41:22.725Z,1008.09
2019-01-12T06:42:22.714Z,1008.08
2019-01-12T06:43:22.710Z,1008.03
2019-01-12T06:44:22.692Z,1008.07
2019-01-12T06:45:22.682Z,1008.01
2019-01-12T06:46:22.670Z,1008.03
2019-01-12T06:47:22.660Z,1008.03
2019-01-12T06:48:22.659Z,1008.03
2019-01-12T06:49:22.640Z,1008.03
2019-01-12T06:50:22.630Z,1008.02
2019-01-12T06:51:22.617Z,1008.02
2019-01-12T06:52:22.606Z,1007.98
2019-01-12T06:53:22.604Z,1008.02
2019-01-12T06:54:22.586Z,1008.03
2019-01-12T06:55:22.576Z,1008.04
2019-01-12T06:56:22.564Z,1008.05
2019-01-12T06:57:22.553Z,1008.09
2019-01-12T06:58:22.550Z,1008.12
2019-01-12T06:59:22.529Z,1008.05
2019-01-12T07:00:22.519Z,1007.99
2019-01-12T07:01:22.512Z,1008.03
2019-01-12T07:02:22.497Z,1008.00
2019-01-12T07:03:22.494Z,1008.06
2019-01-12T07:04:22.477Z,1008.01
2019-01-12T07:05:22.465Z,1007.99
2019-01-12T07:06:22.454Z,1008.01
2019-01-12T07:07:22.445Z,1008.00
2019-01-12T07:08:22.440Z,1007.90
2019-01-12T07:09:22.423Z,1007.91
2019-01-12T07:10:22.410Z,1007.93
2019-01-12T07:11:22.399Z,1007.93
2019-01-12T07:12:22.388Z,1007.96
2019-01-12T07:13:22.389Z,1007.91
2019-01-12T07:14:22.367Z,1007.92
2019-01-12T07:15:22.355Z,1007.92
2019-01-12T07:16:22.346Z,1007.96
2019-01-12T07:17:22.334Z,1007.97
2019-01-12T07:18:22.331Z,1007.98
2019-01-12T07:19:22.312Z,1008.00
2019-01-12T07:20:22.302Z,1008.02
2019-01-12T07:21:22.291Z,1008.00
2019-01-12T07:22:22.280Z,1008.02
2019-01-12T07:23:22.277Z,1007.98
2019-01-12T07:24:22.259Z,1008.02
2019-01-12T07:25:22.249Z,1007.98
2019-01-12T07:26:22.236Z,1008.00
2019-01-12T07:27:22.225Z,1008.05
2019-01-12T07:28:22.224Z,1008.03
2019-01-12T07:29:22.203Z,1008.04
2019-01-12T07:30:22.197Z,1008.00
2019-01-12T07:31:22.184Z,1008.01
2019-01-12T07:32:22.173Z,1008.03
2019-01-12T07:33:22.197Z,1008.05
2019-01-12T07:34:22.150Z,1008.04
2019-01-12T07:35:22.139Z,1008.04
2019-01-12T07:36:22.129Z,1008.05
2019-01-12T07:37:22.125Z,1008.04
2019-01-12T07:38:22.106Z,1008.04
2019-01-12T07:39:22.104Z,1008.03
2019-01-12T07:40:22.086Z,1008.04
2019-01-12T07:41:22.073Z,1008.08
2019-01-12T07:42:22.207Z,1008.04
2019-01-12T07:43:22.053Z,1008.07
2019-01-12T07:44:22.050Z,1008.05
2019-01-12T07:45:22.029Z,1008.06
2019-01-12T07:46:22.021Z,1008.06
2019-01-12T07:47:22.010Z,1008.07
2019-01-12T07:48:21.998Z,1008.06
2019-01-12T07:49:21.999Z,1008.03
2019-01-12T07:50:21.977Z,1008.05
2019-01-12T07:51:21.966Z,1008.02
2019-01-12T07:52:21.954Z,1007.97
2019-01-12T07:53:21.946Z,1008.03
2019-01-12T07:54:21.942Z,1008.01
2019-01-12T07:55:21.922Z,1008.00
2019-01-12T07:56:24.568Z,1008.03
2019-01-12T07:57:21.900Z,1007.98
2019-01-12T07:58:21.889Z,1007.95
2019-01-12T07:59:21.893Z,1007.98
2019-01-12T08:00:21.895Z,1007.93
2019-01-12T08:01:21.861Z,1007.97
2019-01-12T08:02:21.845Z,1007.95
2019-01-12T08:03:21.833Z,1007.98
2019-01-12T08:04:21.833Z,1007.94
2019-01-12T08:05:21.817Z,1007.90
2019-01-12T08:06:21.807Z,1007.82
2019-01-12T08:07:21.789Z,1007.86
2019-01-12T08:08:21.783Z,1007.83
2019-01-12T08:09:21.780Z,1007.88
2019-01-12T08:10:21.758Z,1007.91
2019-01-12T08:11:21.752Z,1007.82
2019-01-12T08:12:21.744Z,1007.75
2019-01-12T08:13:21.727Z,1007.85
2019-01-12T08:14:21.725Z,1007.82
2019-01-12T08:15:21.705Z,1007.83
2019-01-12T08:16:21.692Z,1007.85
2019-01-12T08:17:21.686Z,1007.81
2019-01-12T08:18:21.673Z,1007.76
2019-01-12T08:19:21.668Z,1007.74
2019-01-12T08:20:21.649Z,1007.65
2019-01-12T08:21:21.637Z,1007.73
2019-01-12T08:22:21.628Z,1007.69
2019-01-12T08:23:21.618Z,1007.64
2019-01-12T08:24:21.620Z,1007.63
2019-01-12T08:25:21.596Z,1007.65
2019-01-12T08:26:21.583Z,1007.66
2019-01-12T08:27:21.572Z,1007.60
2019-01-12T08:28:21.562Z,1007.62
2019-01-12T08:29:21.565Z,1007.56
2019-01-12T08:30:21.539Z,1007.60
2019-01-12T08:31:21.529Z,1007.60
2019-01-12T08:32:21.518Z,1007.55
2019-01-12T08:33:21.509Z,1007.54
2019-01-12T08:34:21.515Z,1007.54
2019-01-12T08:35:21.492Z,1007.57
2019-01-12T08:36:21.475Z,1007.53
2019-01-12T08:37:21.465Z,1007.57
2019-01-12T08:38:21.453Z,1007.56
2019-01-12T08:39:21.454Z,1007.48
2019-01-12T08:40:21.436Z,1007.50
2019-01-12T08:41:21.434Z,1007.51
2019-01-12T08:42:21.410Z,1007.43
2019-01-12T08:43:21.400Z,1007.47
2019-01-12T08:44:21.397Z,1007.50
2019-01-12T08:45:21.391Z,1007.43
2019-01-12T08:46:21.374Z,1007.48
2019-01-12T08:47:21.355Z,1007.50
2019-01-12T08:48:21.345Z,1007.44
2019-01-12T08:49:21.627Z,1007.41
2019-01-12T08:50:21.321Z,1007.37
2019-01-12T08:51:21.356Z,1007.39
2019-01-12T08:52:21.304Z,1007.36
2019-01-12T08:53:21.289Z,1007.42
2019-01-12T08:54:21.284Z,1007.39
2019-01-12T08:55:21.277Z,1007.36
2019-01-12T08:56:21.259Z,1007.35
2019-01-12T08:57:21.247Z,1007.34
2019-01-12T08:58:21.238Z,1007.30
2019-01-12T08:59:21.228Z,1007.31
2019-01-12T09:00:21.222Z,1007.28
2019-01-12T09:01:21.201Z,1007.32
2019-01-12T09:02:21.191Z,1007.20
2019-01-12T09:03:21.182Z,1007.21
2019-01-12T09:04:21.177Z,1007.23
2019-01-12T09:05:21.167Z,1007.20
2019-01-12T09:06:21.147Z,1007.20
2019-01-12T09:07:21.138Z,1007.13
2019-01-12T09:08:21.131Z,1007.18
2019-01-12T09:09:21.115Z,1007.11
2019-01-12T09:10:21.117Z,1007.11
2019-01-12T09:11:21.093Z,1007.11
2019-01-12T09:12:21.082Z,1007.12
2019-01-12T09:13:21.071Z,1007.10
2019-01-12T09:14:21.060Z,1007.10
2019-01-12T09:15:21.062Z,1007.11
2019-01-12T09:16:21.037Z,1007.03
2019-01-12T09:17:21.026Z,1007.01
2019-01-12T09:18:21.016Z,1007.01
2019-01-12T09:19:21.005Z,1007.01
2019-01-12T09:20:21.099Z,1006.96
2019-01-12T09:21:20.987Z,1006.95
2019-01-12T09:22:20.974Z,1007.03
2019-01-12T09:23:20.963Z,1006.97
2019-01-12T09:24:20.950Z,1006.95
2019-01-12T09:25:20.950Z,1006.96
2019-01-12T09:26:20.932Z,1006.94
2019-01-12T09:27:20.926Z,1006.98
2019-01-12T09:28:20.908Z,1006.92
2019-01-12T09:29:20.898Z,1006.89
2019-01-12T09:30:20.893Z,1006.90
2019-01-12T09:31:20.882Z,1006.89
2019-01-12T09:32:20.863Z,1006.84
2019-01-12T09:33:20.860Z,1006.84
2019-01-12T09:34:20.842Z,1006.85
2019-01-12T09:35:20.845Z,1006.80
2019-01-12T09:36:20.819Z,1006.81
2019-01-12T09:37:20.809Z,1006.78
2019-01-12T09:38:20.802Z,1006.77
2019-01-12T09:39:20.788Z,1006.77
2019-01-12T09:40:20.786Z,1006.80
2019-01-12T09:41:20.767Z,1006.77
2019-01-12T09:42:20.760Z,1006.74
2019-01-12T09:43:20.743Z,1006.71
2019-01-12T09:44:20.735Z,1006.69
2019-01-12T09:45:20.730Z,1006.73
2019-01-12T09:46:20.713Z,1006.70
2019-01-12T09:47:20.699Z,1006.67
2019-01-12T09:48:20.688Z,1006.67
2019-01-12T09:49:20.680Z,1006.67
2019-01-12T09:50:20.676Z,1006.69
2019-01-12T09:51:20.656Z,1006.69
2019-01-12T09:52:20.645Z,1006.67
2019-01-12T09:53:20.637Z,1006.66
2019-01-12T09:54:20.627Z,1006.64
2019-01-12T09:55:20.623Z,1006.58
2019-01-12T09:56:20.601Z,1006.60
2019-01-12T09:57:20.590Z,1006.55
2019-01-12T09:58:20.580Z,1006.51
2019-01-12T09:59:20.569Z,1006.51
2019-01-12T10:00:20.587Z,1006.49
2019-01-12T10:01:20.548Z,1006.48
2019-01-12T10:02:20.537Z,1006.46
2019-01-12T10:03:20.526Z,1006.48
2019-01-12T10:04:20.514Z,1006.40
2019-01-12T10:05:20.505Z,1006.37
2019-01-12T10:06:20.506Z,1006.29
2019-01-12T10:07:20.482Z,1006.33
2019-01-12T10:08:20.472Z,1006.27
2019-01-12T10:09:20.462Z,1006.26
2019-01-12T10:10:20.448Z,1006.32
2019-01-12T10:11:20.448Z,1006.23
2019-01-12T10:12:20.426Z,1006.25
2019-01-12T10:13:20.420Z,1006.29
2019-01-12T10:14:20.405Z,1006.20
2019-01-12T10:15:20.397Z,1006.21
2019-01-12T10:16:20.393Z,1006.18
2019-01-12T10:17:20.373Z,1006.21
2019-01-12T10:18:20.366Z,1006.15
2019-01-12T10:19:20.360Z,1006.17
2019-01-12T10:20:20.340Z,1006.09
2019-01-12T10:21:20.384Z,1006.13
2019-01-12T10:22:20.319Z,1006.08
2019-01-12T10:23:20.312Z,1006.06
2019-01-12T10:24:20.298Z,1006.01
2019-01-12T10:25:20.302Z,1006.07
2019-01-12T10:26:20.283Z,1005.94
2019-01-12T10:27:20.265Z,1006.01
2019-01-12T10:28:20.253Z,1005.97
2019-01-12T10:29:20.248Z,1005.99
2019-01-12T10:30:20.233Z,1005.93
2019-01-12T10:31:20.229Z,1005.90
2019-01-12T10:32:20.210Z,1005.95
2019-01-12T10:33:20.199Z,1005.87
2019-01-12T10:34:20.188Z,1005.85
2019-01-12T10:35:20.183Z,1005.81
2019-01-12T10:36:20.176Z,1005.83
2019-01-12T10:37:20.156Z,1005.76
2019-01-12T10:38:20.145Z,1005.79
2019-01-12T10:39:20.133Z,1005.76
2019-01-12T10:40:20.126Z,1005.68
2019-01-12T10:41:20.122Z,1005.73
2019-01-12T10:42:20.102Z,1005.75
2019-01-12T10:43:20.090Z,1005.71
2019-01-12T10:44:20.080Z,1005.74
2019-01-12T10:45:20.069Z,1005.66
2019-01-12T10:46:20.067Z,1005.64
2019-01-12T10:47:20.049Z,1005.66
2019-01-12T10:48:20.039Z,1005.70
2019-01-12T10:49:20.026Z,1005.64
2019-01-12T10:50:20.015Z,1005.60
2019-01-12T10:51:20.013Z,1005.61
2019-01-12T10:52:19.994Z,1005.65
2019-01-12T10:53:19.982Z,1005.65
2019-01-12T10:54:19.974Z,1005.66
2019-01-12T10:55:19.988Z,1005.62
2019-01-12T10:56:21.295Z,1005.58
2019-01-12T10:57:19.942Z,1005.57
2019-01-12T10:58:19.930Z,1005.54
2019-01-12T10:59:19.921Z,1005.58
2019-01-12T11:00:19.909Z,1005.66
2019-01-12T11:01:19.907Z,1005.48
2019-01-12T11:02:19.887Z,1005.50
2019-01-12T11:03:19.876Z,1005.45
2019-01-12T11:04:19.868Z,1005.43
2019-01-12T11:05:19.857Z,1005.41
2019-01-12T11:06:19.853Z,1005.40
2019-01-12T11:07:19.837Z,1005.45
2019-01-12T11:08:19.823Z,1005.36
2019-01-12T11:09:19.813Z,1005.36
2019-01-12T11:10:19.803Z,1005.36
2019-01-12T11:11:19.853Z,1005.24
2019-01-12T11:12:19.779Z,1005.30
2019-01-12T11:13:19.770Z,1005.33
2019-01-12T11:14:19.760Z,1005.24
2019-01-12T11:15:19.752Z,1005.32
2019-01-12T11:16:19.740Z,1005.33
2019-01-12T11:17:19.736Z,1005.28
2019-01-12T11:18:19.718Z,1005.27
2019-01-12T11:19:19.705Z,1005.28
2019-01-12T11:20:19.696Z,1005.21
2019-01-12T11:21:19.687Z,1005.13
2019-01-12T11:22:19.684Z,1005.14
2019-01-12T11:23:19.665Z,1005.12
2019-01-12T11:24:19.652Z,1005.15
2019-01-12T11:25:19.640Z,1005.10
2019-01-12T11:26:19.632Z,1005.07
2019-01-12T11:27:19.630Z,1005.07
2019-01-12T11:28:19.609Z,1005.08
2019-01-12T11:29:19.598Z,1005.07
2019-01-12T11:30:19.600Z,1004.99
2019-01-12T11:31:20.017Z,1004.98
2019-01-12T11:32:19.577Z,1005.01
2019-01-12T11:33:19.555Z,1004.95
2019-01-12T11:34:19.547Z,1004.94
2019-01-12T11:35:19.537Z,1004.94
2019-01-12T11:36:19.524Z,1004.95
2019-01-12T11:37:19.525Z,1004.90
2019-01-12T11:38:19.502Z,1004.88
2019-01-12T11:39:19.495Z,1004.88
2019-01-12T11:40:19.493Z,1004.84
2019-01-12T11:41:19.470Z,1004.90
2019-01-12T11:42:19.467Z,1004.89
2019-01-12T11:43:19.449Z,1004.85
2019-01-12T11:44:19.440Z,1004.86
2019-01-12T11:45:19.431Z,1004.89
2019-01-12T11:46:19.418Z,1004.85
2019-01-12T11:47:19.418Z,1004.76
2019-01-12T11:48:19.398Z,1004.82
2019-01-12T11:49:19.385Z,1004.81
2019-01-12T11:50:19.374Z,1004.77
2019-01-12T11:51:19.364Z,1004.76
2019-01-12T11:52:19.360Z,1004.77
2019-01-12T11:53:19.341Z,1004.71
2019-01-12T11:54:19.331Z,1004.72
2019-01-12T11:55:19.324Z,1004.67
2019-01-12T11:56:19.310Z,1004.66
2019-01-12T11:57:19.450Z,1004.58
2019-01-12T11:58:19.289Z,1004.60
2019-01-12T11:59:19.277Z,1004.56
2019-01-12T12:00:19.267Z,1004.54
2019-01-12T12:01:19.255Z,1004.54
2019-01-12T12:02:19.257Z,1004.54
2019-01-12T12:03:19.235Z,1004.50
2019-01-12T12:04:19.224Z,1004.49
2019-01-12T12:05:19.212Z,1004.49